sensor_id;sensor_type;location;lat;lon;timestamp;temperature;humidity
4677;DHT22;2352;48.180;11.478;2022-10-26T00:02:13;15.10;94.50
4677;DHT22;2352;48.180;11.478;2022-10-26T00:05:17;15.10;94.30
4677;DHT22;2352;48.180;11.478;2022-10-26T00:08:19;15.20;94.30
4677;DHT22;2352;48.180;11.478;2022-10-26T00:11:23;15.20;94.40
4677;DHT22;2352;48.180;11.478;2022-10-26T00:14:26;15.20;94.40
4677;DHT22;2352;48.180;11.478;2022-10-26T00:17:30;15.20;94.30
4677;DHT22;2352;48.180;11.478;2022-10-26T00:20:33;15.20;94.50
4677;DHT22;2352;48.180;11.478;2022-10-26T00:23:36;15.20;94.60
4677;DHT22;2352;48.180;11.478;2022-10-26T00:26:40;15.20;94.60
4677;DHT22;2352;48.180;11.478;2022-10-26T00:29:43;15.20;94.50
4677;DHT22;2352;48.180;11.478;2022-10-26T00:32:47;15.20;94.40
4677;DHT22;2352;48.180;11.478;2022-10-26T00:35:52;15.20;94.80
4677;DHT22;2352;48.180;11.478;2022-10-26T00:38:56;15.30;94.70
4677;DHT22;2352;48.180;11.478;2022-10-26T00:41:59;15.30;94.70
4677;DHT22;2352;48.180;11.478;2022-10-26T00:45:04;15.30;94.80
4677;DHT22;2352;48.180;11.478;2022-10-26T00:48:21;15.30;94.80
4677;DHT22;2352;48.180;11.478;2022-10-26T00:51:29;15.30;94.80
4677;DHT22;2352;48.180;11.478;2022-10-26T00:54:33;15.30;94.90
4677;DHT22;2352;48.180;11.478;2022-10-26T00:57:37;15.30;94.80
4677;DHT22;2352;48.180;11.478;2022-10-26T01:00:41;15.30;95.00
4677;DHT22;2352;48.180;11.478;2022-10-26T01:03:46;15.30;94.80
4677;DHT22;2352;48.180;11.478;2022-10-26T01:06:49;15.10;95.20
4677;DHT22;2352;48.180;11.478;2022-10-26T01:09:54;15.00;95.40
4677;DHT22;2352;48.180;11.478;2022-10-26T01:12:58;15.10;95.40
4677;DHT22;2352;48.180;11.478;2022-10-26T01:16:11;15.10;95.40
4677;DHT22;2352;48.180;11.478;2022-10-26T01:19:46;15.20;95.40
4677;DHT22;2352;48.180;11.478;2022-10-26T01:22:58;15.20;95.40
4677;DHT22;2352;48.180;11.478;2022-10-26T01:26:41;15.20;95.40
4677;DHT22;2352;48.180;11.478;2022-10-26T01:33:30;15.20;95.60
4677;DHT22;2352;48.180;11.478;2022-10-26T01:36:38;15.20;95.50
4677;DHT22;2352;48.180;11.478;2022-10-26T01:39:46;15.20;95.60
4677;DHT22;2352;48.180;11.478;2022-10-26T01:42:52;15.20;95.70
4677;DHT22;2352;48.180;11.478;2022-10-26T01:45:56;15.20;96.20
4677;DHT22;2352;48.180;11.478;2022-10-26T01:49:06;15.30;96.40
4677;DHT22;2352;48.180;11.478;2022-10-26T01:52:11;15.30;96.30
4677;DHT22;2352;48.180;11.478;2022-10-26T01:55:43;15.30;96.40
4677;DHT22;2352;48.180;11.478;2022-10-26T01:59:10;15.20;96.30
4677;DHT22;2352;48.180;11.478;2022-10-26T02:02:37;15.30;96.50
4677;DHT22;2352;48.180;11.478;2022-10-26T02:05:57;15.30;96.50
4677;DHT22;2352;48.180;11.478;2022-10-26T02:09:08;15.30;96.70
4677;DHT22;2352;48.180;11.478;2022-10-26T02:12:27;15.30;96.40
4677;DHT22;2352;48.180;11.478;2022-10-26T02:15:37;15.20;96.60
4677;DHT22;2352;48.180;11.478;2022-10-26T02:18:46;15.20;96.80
4677;DHT22;2352;48.180;11.478;2022-10-26T02:21:56;15.30;96.90
4677;DHT22;2352;48.180;11.478;2022-10-26T02:25:05;15.30;96.60
4677;DHT22;2352;48.180;11.478;2022-10-26T02:28:12;15.40;96.80
4677;DHT22;2352;48.180;11.478;2022-10-26T02:31:16;15.40;96.80
4677;DHT22;2352;48.180;11.478;2022-10-26T02:34:24;15.40;96.80
4677;DHT22;2352;48.180;11.478;2022-10-26T02:37:31;15.40;96.80
4677;DHT22;2352;48.180;11.478;2022-10-26T02:40:35;15.30;96.50
4677;DHT22;2352;48.180;11.478;2022-10-26T02:43:44;15.20;96.80
4677;DHT22;2352;48.180;11.478;2022-10-26T02:46:50;15.20;97.00
4677;DHT22;2352;48.180;11.478;2022-10-26T02:49:54;15.30;97.10
4677;DHT22;2352;48.180;11.478;2022-10-26T02:53:06;15.30;97.10
4677;DHT22;2352;48.180;11.478;2022-10-26T02:56:15;15.40;97.00
4677;DHT22;2352;48.180;11.478;2022-10-26T02:59:21;15.40;96.80
4677;DHT22;2352;48.180;11.478;2022-10-26T03:02:25;15.40;96.90
4677;DHT22;2352;48.180;11.478;2022-10-26T03:05:31;15.40;97.00
4677;DHT22;2352;48.180;11.478;2022-10-26T03:08:35;15.40;97.40
4677;DHT22;2352;48.180;11.478;2022-10-26T03:11:38;15.40;97.20
4677;DHT22;2352;48.180;11.478;2022-10-26T03:14:41;15.50;97.40
4677;DHT22;2352;48.180;11.478;2022-10-26T03:17:44;15.40;96.90
4677;DHT22;2352;48.180;11.478;2022-10-26T03:20:47;15.40;97.20
4677;DHT22;2352;48.180;11.478;2022-10-26T03:23:52;15.50;97.40
4677;DHT22;2352;48.180;11.478;2022-10-26T03:26:54;15.40;97.20
4677;DHT22;2352;48.180;11.478;2022-10-26T03:30:03;15.50;97.40
4677;DHT22;2352;48.180;11.478;2022-10-26T03:33:06;15.50;97.30
4677;DHT22;2352;48.180;11.478;2022-10-26T03:36:09;15.40;97.20
4677;DHT22;2352;48.180;11.478;2022-10-26T03:39:14;15.40;97.40
4677;DHT22;2352;48.180;11.478;2022-10-26T03:42:16;15.40;97.70
4677;DHT22;2352;48.180;11.478;2022-10-26T03:45:19;15.40;97.70
4677;DHT22;2352;48.180;11.478;2022-10-26T03:48:22;15.40;97.90
4677;DHT22;2352;48.180;11.478;2022-10-26T03:51:25;15.40;97.90
4677;DHT22;2352;48.180;11.478;2022-10-26T03:54:30;15.50;97.90
4677;DHT22;2352;48.180;11.478;2022-10-26T03:57:32;15.50;98.00
4677;DHT22;2352;48.180;11.478;2022-10-26T04:00:35;15.50;98.00
4677;DHT22;2352;48.180;11.478;2022-10-26T04:03:38;15.50;98.00
4677;DHT22;2352;48.180;11.478;2022-10-26T04:06:41;15.50;98.00
4677;DHT22;2352;48.180;11.478;2022-10-26T04:09:46;15.50;97.90
4677;DHT22;2352;48.180;11.478;2022-10-26T04:12:49;15.50;97.90
4677;DHT22;2352;48.180;11.478;2022-10-26T04:15:52;15.50;97.80
4677;DHT22;2352;48.180;11.478;2022-10-26T04:18:55;15.50;98.00
4677;DHT22;2352;48.180;11.478;2022-10-26T04:21:57;15.50;98.40
4677;DHT22;2352;48.180;11.478;2022-10-26T04:25:02;15.50;97.90
4677;DHT22;2352;48.180;11.478;2022-10-26T04:28:06;15.50;98.10
4677;DHT22;2352;48.180;11.478;2022-10-26T04:31:09;15.50;98.30
4677;DHT22;2352;48.180;11.478;2022-10-26T04:34:12;15.50;98.20
4677;DHT22;2352;48.180;11.478;2022-10-26T04:37:15;15.40;98.30
4677;DHT22;2352;48.180;11.478;2022-10-26T04:40:19;15.50;98.30
4677;DHT22;2352;48.180;11.478;2022-10-26T04:43:22;15.50;98.30
4677;DHT22;2352;48.180;11.478;2022-10-26T04:46:25;15.50;98.40
4677;DHT22;2352;48.180;11.478;2022-10-26T04:49:28;15.50;98.60
4677;DHT22;2352;48.180;11.478;2022-10-26T04:52:31;15.50;98.30
4677;DHT22;2352;48.180;11.478;2022-10-26T04:55:35;15.40;98.30
4677;DHT22;2352;48.180;11.478;2022-10-26T04:58:38;15.40;98.30
4677;DHT22;2352;48.180;11.478;2022-10-26T05:01:41;15.30;98.10
4677;DHT22;2352;48.180;11.478;2022-10-26T05:04:44;15.30;98.50
4677;DHT22;2352;48.180;11.478;2022-10-26T05:07:52;15.30;98.50
4677;DHT22;2352;48.180;11.478;2022-10-26T05:10:57;15.20;99.00
4677;DHT22;2352;48.180;11.478;2022-10-26T05:13:59;15.20;98.90
4677;DHT22;2352;48.180;11.478;2022-10-26T05:17:02;15.30;99.10
4677;DHT22;2352;48.180;11.478;2022-10-26T05:20:07;15.30;98.90
4677;DHT22;2352;48.180;11.478;2022-10-26T05:23:13;15.30;98.80
4677;DHT22;2352;48.180;11.478;2022-10-26T05:26:20;15.30;99.00
4677;DHT22;2352;48.180;11.478;2022-10-26T05:29:24;15.40;98.70
4677;DHT22;2352;48.180;11.478;2022-10-26T05:32:27;15.30;98.60
4677;DHT22;2352;48.180;11.478;2022-10-26T05:35:30;15.30;98.90
4677;DHT22;2352;48.180;11.478;2022-10-26T05:38:33;15.30;98.70
4677;DHT22;2352;48.180;11.478;2022-10-26T05:41:37;15.20;99.00
4677;DHT22;2352;48.180;11.478;2022-10-26T05:44:40;15.20;98.90
4677;DHT22;2352;48.180;11.478;2022-10-26T05:47:44;15.20;99.00
4677;DHT22;2352;48.180;11.478;2022-10-26T05:50:48;15.30;98.80
4677;DHT22;2352;48.180;11.478;2022-10-26T05:53:51;15.30;98.90
4677;DHT22;2352;48.180;11.478;2022-10-26T05:56:57;15.30;99.20
4677;DHT22;2352;48.180;11.478;2022-10-26T06:00:00;15.40;99.00
4677;DHT22;2352;48.180;11.478;2022-10-26T06:03:10;15.30;98.90
4677;DHT22;2352;48.180;11.478;2022-10-26T06:06:16;15.40;99.20
4677;DHT22;2352;48.180;11.478;2022-10-26T06:09:19;15.40;99.20
4677;DHT22;2352;48.180;11.478;2022-10-26T06:12:24;15.40;99.30
4677;DHT22;2352;48.180;11.478;2022-10-26T06:15:28;15.50;99.40
4677;DHT22;2352;48.180;11.478;2022-10-26T06:18:41;15.50;99.30
4677;DHT22;2352;48.180;11.478;2022-10-26T06:22:00;15.50;99.20
4677;DHT22;2352;48.180;11.478;2022-10-26T06:25:15;15.50;99.40
4677;DHT22;2352;48.180;11.478;2022-10-26T06:28:32;15.50;99.60
4677;DHT22;2352;48.180;11.478;2022-10-26T06:31:38;15.50;99.60
4677;DHT22;2352;48.180;11.478;2022-10-26T06:34:44;15.50;99.30
4677;DHT22;2352;48.180;11.478;2022-10-26T06:37:48;15.60;99.50
4677;DHT22;2352;48.180;11.478;2022-10-26T06:40:55;15.60;99.50
4677;DHT22;2352;48.180;11.478;2022-10-26T06:44:00;15.60;99.60
4677;DHT22;2352;48.180;11.478;2022-10-26T06:47:06;15.60;99.70
4677;DHT22;2352;48.180;11.478;2022-10-26T06:50:20;15.60;99.60
4677;DHT22;2352;48.180;11.478;2022-10-26T06:53:31;15.60;99.40
4677;DHT22;2352;48.180;11.478;2022-10-26T06:56:35;15.60;99.60
4677;DHT22;2352;48.180;11.478;2022-10-26T06:59:43;15.70;99.50
4677;DHT22;2352;48.180;11.478;2022-10-26T07:02:48;15.60;99.60
4677;DHT22;2352;48.180;11.478;2022-10-26T07:05:51;15.60;99.70
4677;DHT22;2352;48.180;11.478;2022-10-26T07:08:54;15.60;99.90
4677;DHT22;2352;48.180;11.478;2022-10-26T07:11:57;15.60;99.70
4677;DHT22;2352;48.180;11.478;2022-10-26T07:15:02;15.70;99.90
4677;DHT22;2352;48.180;11.478;2022-10-26T07:18:06;15.70;99.90
4677;DHT22;2352;48.180;11.478;2022-10-26T07:21:09;15.60;99.90
4677;DHT22;2352;48.180;11.478;2022-10-26T07:24:12;15.60;99.90
4677;DHT22;2352;48.180;11.478;2022-10-26T07:27:15;15.60;99.90
4677;DHT22;2352;48.180;11.478;2022-10-26T07:30:21;15.60;99.90
4677;DHT22;2352;48.180;11.478;2022-10-26T07:33:24;15.70;99.90
4677;DHT22;2352;48.180;11.478;2022-10-26T07:36:28;15.60;99.90
4677;DHT22;2352;48.180;11.478;2022-10-26T07:39:31;15.70;99.90
4677;DHT22;2352;48.180;11.478;2022-10-26T07:42:34;15.70;99.90
4677;DHT22;2352;48.180;11.478;2022-10-26T07:45:39;15.70;99.90
4677;DHT22;2352;48.180;11.478;2022-10-26T07:48:42;15.80;99.90
4677;DHT22;2352;48.180;11.478;2022-10-26T07:51:50;15.80;99.90
4677;DHT22;2352;48.180;11.478;2022-10-26T07:54:52;15.90;99.90
4677;DHT22;2352;48.180;11.478;2022-10-26T07:57:55;15.80;99.90
4677;DHT22;2352;48.180;11.478;2022-10-26T08:01:05;15.90;99.90
4677;DHT22;2352;48.180;11.478;2022-10-26T08:04:09;15.90;99.90
4677;DHT22;2352;48.180;11.478;2022-10-26T08:07:12;15.90;99.90
4677;DHT22;2352;48.180;11.478;2022-10-26T08:10:15;15.90;99.90
4677;DHT22;2352;48.180;11.478;2022-10-26T08:13:18;15.90;99.90
4677;DHT22;2352;48.180;11.478;2022-10-26T08:16:23;15.90;99.90
4677;DHT22;2352;48.180;11.478;2022-10-26T08:19:26;15.90;99.90
4677;DHT22;2352;48.180;11.478;2022-10-26T08:22:29;15.90;99.90
4677;DHT22;2352;48.180;11.478;2022-10-26T08:25:32;16.00;99.90
4677;DHT22;2352;48.180;11.478;2022-10-26T08:28:35;16.00;99.90
4677;DHT22;2352;48.180;11.478;2022-10-26T08:31:39;16.20;99.90
4677;DHT22;2352;48.180;11.478;2022-10-26T08:34:42;16.20;99.90
4677;DHT22;2352;48.180;11.478;2022-10-26T08:37:45;16.30;99.90
4677;DHT22;2352;48.180;11.478;2022-10-26T08:40:48;16.30;99.90
4677;DHT22;2352;48.180;11.478;2022-10-26T08:43:54;16.40;99.80
4677;DHT22;2352;48.180;11.478;2022-10-26T08:47:05;16.50;99.90
4677;DHT22;2352;48.180;11.478;2022-10-26T08:50:12;16.60;99.60
4677;DHT22;2352;48.180;11.478;2022-10-26T08:53:20;16.60;99.60
4677;DHT22;2352;48.180;11.478;2022-10-26T08:56:25;16.70;99.90
4677;DHT22;2352;48.180;11.478;2022-10-26T08:59:34;16.90;99.20
4677;DHT22;2352;48.180;11.478;2022-10-26T09:02:41;17.00;99.20
4677;DHT22;2352;48.180;11.478;2022-10-26T09:05:53;17.00;99.00
4677;DHT22;2352;48.180;11.478;2022-10-26T09:09:02;17.20;98.70
4677;DHT22;2352;48.180;11.478;2022-10-26T09:12:10;17.30;98.20
4677;DHT22;2352;48.180;11.478;2022-10-26T09:15:23;17.40;97.90
4677;DHT22;2352;48.180;11.478;2022-10-26T09:18:39;17.60;98.00
4677;DHT22;2352;48.180;11.478;2022-10-26T09:21:59;17.80;97.80
4677;DHT22;2352;48.180;11.478;2022-10-26T09:25:15;17.90;97.40
4677;DHT22;2352;48.180;11.478;2022-10-26T09:28:19;18.00;96.50
4677;DHT22;2352;48.180;11.478;2022-10-26T09:31:24;18.20;96.20
4677;DHT22;2352;48.180;11.478;2022-10-26T09:34:33;18.30;96.10
4677;DHT22;2352;48.180;11.478;2022-10-26T09:37:42;18.50;96.00
4677;DHT22;2352;48.180;11.478;2022-10-26T09:40:53;18.70;94.90
4677;DHT22;2352;48.180;11.478;2022-10-26T09:44:02;18.70;94.50
4677;DHT22;2352;48.180;11.478;2022-10-26T09:47:13;18.80;94.70
4677;DHT22;2352;48.180;11.478;2022-10-26T09:50:22;19.00;95.10
4677;DHT22;2352;48.180;11.478;2022-10-26T09:53:26;19.10;92.80
4677;DHT22;2352;48.180;11.478;2022-10-26T09:56:29;19.20;93.80
4677;DHT22;2352;48.180;11.478;2022-10-26T09:59:37;19.30;93.90
4677;DHT22;2352;48.180;11.478;2022-10-26T10:02:42;19.30;93.80
4677;DHT22;2352;48.180;11.478;2022-10-26T10:05:47;19.20;92.00
4677;DHT22;2352;48.180;11.478;2022-10-26T10:09:04;19.30;92.70
4677;DHT22;2352;48.180;11.478;2022-10-26T10:12:19;19.30;92.10
4677;DHT22;2352;48.180;11.478;2022-10-26T10:15:23;19.40;91.70
4677;DHT22;2352;48.180;11.478;2022-10-26T10:18:27;19.30;90.40
4677;DHT22;2352;48.180;11.478;2022-10-26T10:21:36;19.10;90.00
4677;DHT22;2352;48.180;11.478;2022-10-26T10:24:41;19.10;89.60
4677;DHT22;2352;48.180;11.478;2022-10-26T10:27:52;19.20;91.60
4677;DHT22;2352;48.180;11.478;2022-10-26T10:30:57;19.30;89.80
4677;DHT22;2352;48.180;11.478;2022-10-26T10:34:14;19.30;90.20
4677;DHT22;2352;48.180;11.478;2022-10-26T10:37:24;19.20;88.80
4677;DHT22;2352;48.180;11.478;2022-10-26T10:40:29;19.30;90.20
4677;DHT22;2352;48.180;11.478;2022-10-26T10:43:32;19.30;89.80
4677;DHT22;2352;48.180;11.478;2022-10-26T10:46:36;19.30;90.50
4677;DHT22;2352;48.180;11.478;2022-10-26T10:49:39;19.40;89.30
4677;DHT22;2352;48.180;11.478;2022-10-26T10:52:46;19.30;89.60
4677;DHT22;2352;48.180;11.478;2022-10-26T10:56:00;19.30;90.40
4677;DHT22;2352;48.180;11.478;2022-10-26T10:59:34;19.30;90.50
4677;DHT22;2352;48.180;11.478;2022-10-26T11:02:52;19.40;91.10
4677;DHT22;2352;48.180;11.478;2022-10-26T11:06:12;19.50;91.00
4677;DHT22;2352;48.180;11.478;2022-10-26T11:09:23;19.40;90.90
4677;DHT22;2352;48.180;11.478;2022-10-26T11:12:30;19.50;90.70
4677;DHT22;2352;48.180;11.478;2022-10-26T11:15:36;19.40;90.40
4677;DHT22;2352;48.180;11.478;2022-10-26T11:18:45;19.40;90.80
4677;DHT22;2352;48.180;11.478;2022-10-26T11:21:52;19.30;90.70
4677;DHT22;2352;48.180;11.478;2022-10-26T11:25:01;19.40;90.90
4677;DHT22;2352;48.180;11.478;2022-10-26T11:28:11;19.40;90.40
4677;DHT22;2352;48.180;11.478;2022-10-26T11:31:19;19.50;90.50
4677;DHT22;2352;48.180;11.478;2022-10-26T11:34:30;19.50;90.50
4677;DHT22;2352;48.180;11.478;2022-10-26T11:37:40;19.60;90.80
4677;DHT22;2352;48.180;11.478;2022-10-26T11:40:52;19.60;90.50
4677;DHT22;2352;48.180;11.478;2022-10-26T11:44:04;19.60;90.80
4677;DHT22;2352;48.180;11.478;2022-10-26T11:47:14;19.70;90.40
4677;DHT22;2352;48.180;11.478;2022-10-26T11:50:20;19.80;90.80
4677;DHT22;2352;48.180;11.478;2022-10-26T11:53:27;19.70;90.40
4677;DHT22;2352;48.180;11.478;2022-10-26T11:56:38;19.70;90.20
4677;DHT22;2352;48.180;11.478;2022-10-26T11:59:48;19.70;90.50
4677;DHT22;2352;48.180;11.478;2022-10-26T12:02:55;19.70;90.10
4677;DHT22;2352;48.180;11.478;2022-10-26T12:05:59;19.70;90.00
4677;DHT22;2352;48.180;11.478;2022-10-26T12:09:06;19.70;89.70
4677;DHT22;2352;48.180;11.478;2022-10-26T12:12:16;19.70;89.60
4677;DHT22;2352;48.180;11.478;2022-10-26T12:15:25;19.80;89.70
4677;DHT22;2352;48.180;11.478;2022-10-26T12:18:44;19.80;89.70
4677;DHT22;2352;48.180;11.478;2022-10-26T12:21:56;19.80;90.00
4677;DHT22;2352;48.180;11.478;2022-10-26T12:25:18;19.80;89.30
4677;DHT22;2352;48.180;11.478;2022-10-26T12:28:40;19.80;89.80
4677;DHT22;2352;48.180;11.478;2022-10-26T12:31:43;19.70;89.30
4677;DHT22;2352;48.180;11.478;2022-10-26T12:35:09;19.70;90.40
4677;DHT22;2352;48.180;11.478;2022-10-26T12:41:55;19.90;90.30
4677;DHT22;2352;48.180;11.478;2022-10-26T12:45:15;19.90;90.00
4677;DHT22;2352;48.180;11.478;2022-10-26T12:48:23;20.00;90.00
4677;DHT22;2352;48.180;11.478;2022-10-26T12:51:43;20.00;89.40
4677;DHT22;2352;48.180;11.478;2022-10-26T12:54:58;20.10;89.30
4677;DHT22;2352;48.180;11.478;2022-10-26T13:01:52;20.30;88.70
4677;DHT22;2352;48.180;11.478;2022-10-26T13:05:24;20.40;87.20
4677;DHT22;2352;48.180;11.478;2022-10-26T13:08:38;20.40;89.10
4677;DHT22;2352;48.180;11.478;2022-10-26T13:11:46;20.40;87.50
4677;DHT22;2352;48.180;11.478;2022-10-26T13:14:56;20.40;86.90
4677;DHT22;2352;48.180;11.478;2022-10-26T13:18:07;20.60;87.80
4677;DHT22;2352;48.180;11.478;2022-10-26T13:21:13;20.70;87.30
4677;DHT22;2352;48.180;11.478;2022-10-26T13:24:18;20.70;85.70
4677;DHT22;2352;48.180;11.478;2022-10-26T13:27:38;20.70;85.50
4677;DHT22;2352;48.180;11.478;2022-10-26T13:30:46;20.60;86.30
4677;DHT22;2352;48.180;11.478;2022-10-26T13:33:51;20.60;87.40
4677;DHT22;2352;48.180;11.478;2022-10-26T13:37:04;20.60;86.50
4677;DHT22;2352;48.180;11.478;2022-10-26T13:40:15;20.60;86.00
4677;DHT22;2352;48.180;11.478;2022-10-26T13:43:21;20.50;85.70
4677;DHT22;2352;48.180;11.478;2022-10-26T13:46:26;20.50;86.50
4677;DHT22;2352;48.180;11.478;2022-10-26T13:49:35;20.50;87.40
4677;DHT22;2352;48.180;11.478;2022-10-26T13:52:42;20.50;87.10
4677;DHT22;2352;48.180;11.478;2022-10-26T13:55:49;20.60;88.10
4677;DHT22;2352;48.180;11.478;2022-10-26T13:58:56;20.70;87.40
4677;DHT22;2352;48.180;11.478;2022-10-26T14:02:15;20.70;87.70
4677;DHT22;2352;48.180;11.478;2022-10-26T14:05:19;20.60;86.30
4677;DHT22;2352;48.180;11.478;2022-10-26T14:08:23;20.60;87.10
4677;DHT22;2352;48.180;11.478;2022-10-26T14:11:33;20.60;87.30
4677;DHT22;2352;48.180;11.478;2022-10-26T14:14:37;20.60;88.60
4677;DHT22;2352;48.180;11.478;2022-10-26T14:17:41;20.70;86.70
4677;DHT22;2352;48.180;11.478;2022-10-26T14:20:51;20.70;87.40
4677;DHT22;2352;48.180;11.478;2022-10-26T14:23:57;20.70;87.70
4677;DHT22;2352;48.180;11.478;2022-10-26T14:27:00;20.70;87.00
4677;DHT22;2352;48.180;11.478;2022-10-26T14:30:20;20.80;86.80
4677;DHT22;2352;48.180;11.478;2022-10-26T14:33:26;20.70;86.40
4677;DHT22;2352;48.180;11.478;2022-10-26T14:36:34;20.70;87.10
4677;DHT22;2352;48.180;11.478;2022-10-26T14:39:42;20.70;86.00
4677;DHT22;2352;48.180;11.478;2022-10-26T14:42:50;20.60;87.30
4677;DHT22;2352;48.180;11.478;2022-10-26T14:45:55;20.50;87.50
4677;DHT22;2352;48.180;11.478;2022-10-26T14:48:59;20.50;87.50
4677;DHT22;2352;48.180;11.478;2022-10-26T14:52:05;20.50;88.00
4677;DHT22;2352;48.180;11.478;2022-10-26T14:55:13;20.60;89.50
4677;DHT22;2352;48.180;11.478;2022-10-26T14:58:19;20.60;90.30
4677;DHT22;2352;48.180;11.478;2022-10-26T15:01:30;20.60;89.80
4677;DHT22;2352;48.180;11.478;2022-10-26T15:04:39;20.60;90.40
4677;DHT22;2352;48.180;11.478;2022-10-26T15:07:43;20.60;89.50
4677;DHT22;2352;48.180;11.478;2022-10-26T15:10:47;20.50;90.00
4677;DHT22;2352;48.180;11.478;2022-10-26T15:13:50;20.50;91.20
4677;DHT22;2352;48.180;11.478;2022-10-26T15:16:56;20.40;90.20
4677;DHT22;2352;48.180;11.478;2022-10-26T15:20:02;20.30;90.50
4677;DHT22;2352;48.180;11.478;2022-10-26T15:23:12;20.30;91.30
4677;DHT22;2352;48.180;11.478;2022-10-26T15:26:16;20.40;90.50
4677;DHT22;2352;48.180;11.478;2022-10-26T15:29:35;20.40;91.10
4677;DHT22;2352;48.180;11.478;2022-10-26T15:32:38;20.40;90.60
4677;DHT22;2352;48.180;11.478;2022-10-26T15:35:41;20.20;90.30
4677;DHT22;2352;48.180;11.478;2022-10-26T15:38:46;20.20;90.50
4677;DHT22;2352;48.180;11.478;2022-10-26T15:41:50;20.30;91.30
4677;DHT22;2352;48.180;11.478;2022-10-26T15:44:54;20.30;91.80
4677;DHT22;2352;48.180;11.478;2022-10-26T15:47:58;20.30;92.00
4677;DHT22;2352;48.180;11.478;2022-10-26T15:51:02;20.30;92.00
4677;DHT22;2352;48.180;11.478;2022-10-26T15:54:07;20.30;92.30
4677;DHT22;2352;48.180;11.478;2022-10-26T15:57:12;20.30;92.40
4677;DHT22;2352;48.180;11.478;2022-10-26T16:00:21;20.30;92.40
4677;DHT22;2352;48.180;11.478;2022-10-26T16:03:25;20.30;92.40
4677;DHT22;2352;48.180;11.478;2022-10-26T16:06:29;20.30;92.80
4677;DHT22;2352;48.180;11.478;2022-10-26T16:09:34;20.20;93.30
4677;DHT22;2352;48.180;11.478;2022-10-26T16:12:37;20.10;93.20
4677;DHT22;2352;48.180;11.478;2022-10-26T16:15:40;20.20;93.00
4677;DHT22;2352;48.180;11.478;2022-10-26T16:18:43;20.20;92.90
4677;DHT22;2352;48.180;11.478;2022-10-26T16:21:50;20.20;93.00
4677;DHT22;2352;48.180;11.478;2022-10-26T16:24:54;20.20;93.00
4677;DHT22;2352;48.180;11.478;2022-10-26T16:27:57;20.10;93.10
4677;DHT22;2352;48.180;11.478;2022-10-26T16:31:00;20.10;93.00
4677;DHT22;2352;48.180;11.478;2022-10-26T16:34:03;20.10;93.20
4677;DHT22;2352;48.180;11.478;2022-10-26T16:37:06;20.10;93.30
4677;DHT22;2352;48.180;11.478;2022-10-26T16:40:11;20.00;93.30
4677;DHT22;2352;48.180;11.478;2022-10-26T16:43:14;20.00;93.50
4677;DHT22;2352;48.180;11.478;2022-10-26T16:46:19;20.00;93.70
4677;DHT22;2352;48.180;11.478;2022-10-26T16:49:22;19.90;93.70
4677;DHT22;2352;48.180;11.478;2022-10-26T16:52:25;19.90;93.80
4677;DHT22;2352;48.180;11.478;2022-10-26T16:55:29;19.80;93.80
4677;DHT22;2352;48.180;11.478;2022-10-26T16:58:32;19.80;93.90
4677;DHT22;2352;48.180;11.478;2022-10-26T17:01:38;19.90;93.90
4677;DHT22;2352;48.180;11.478;2022-10-26T17:04:41;19.90;94.10
4677;DHT22;2352;48.180;11.478;2022-10-26T17:07:45;19.80;94.10
4677;DHT22;2352;48.180;11.478;2022-10-26T17:10:50;19.80;94.10
4677;DHT22;2352;48.180;11.478;2022-10-26T17:13:53;19.70;94.30
4677;DHT22;2352;48.180;11.478;2022-10-26T17:16:56;19.70;94.60
4677;DHT22;2352;48.180;11.478;2022-10-26T17:19:59;19.70;94.50
4677;DHT22;2352;48.180;11.478;2022-10-26T17:23:02;19.60;94.50
4677;DHT22;2352;48.180;11.478;2022-10-26T17:26:08;19.60;94.60
4677;DHT22;2352;48.180;11.478;2022-10-26T17:29:12;19.60;94.70
4677;DHT22;2352;48.180;11.478;2022-10-26T17:32:15;19.60;94.80
4677;DHT22;2352;48.180;11.478;2022-10-26T17:35:18;19.60;94.70
4677;DHT22;2352;48.180;11.478;2022-10-26T17:38:21;19.60;94.70
4677;DHT22;2352;48.180;11.478;2022-10-26T17:41:25;19.50;94.70
4677;DHT22;2352;48.180;11.478;2022-10-26T17:44:29;19.50;94.70
4677;DHT22;2352;48.180;11.478;2022-10-26T17:47:32;19.40;94.90
4677;DHT22;2352;48.180;11.478;2022-10-26T17:50:35;19.40;94.90
4677;DHT22;2352;48.180;11.478;2022-10-26T17:53:38;19.40;94.80
4677;DHT22;2352;48.180;11.478;2022-10-26T17:56:45;19.30;94.70
4677;DHT22;2352;48.180;11.478;2022-10-26T17:59:48;19.30;94.60
4677;DHT22;2352;48.180;11.478;2022-10-26T18:02:50;19.30;94.70
4677;DHT22;2352;48.180;11.478;2022-10-26T18:05:53;19.30;94.50
4677;DHT22;2352;48.180;11.478;2022-10-26T18:08:57;19.20;94.50
4677;DHT22;2352;48.180;11.478;2022-10-26T18:12:01;19.20;94.50
4677;DHT22;2352;48.180;11.478;2022-10-26T18:15:05;19.10;94.40
4677;DHT22;2352;48.180;11.478;2022-10-26T18:18:08;19.00;94.40
4677;DHT22;2352;48.180;11.478;2022-10-26T18:21:12;19.00;94.50
4677;DHT22;2352;48.180;11.478;2022-10-26T18:24:16;19.00;94.50
4677;DHT22;2352;48.180;11.478;2022-10-26T18:27:20;18.90;94.40
4677;DHT22;2352;48.180;11.478;2022-10-26T18:30:23;18.80;94.60
4677;DHT22;2352;48.180;11.478;2022-10-26T18:33:27;18.80;94.60
4677;DHT22;2352;48.180;11.478;2022-10-26T18:36:30;18.70;94.50
4677;DHT22;2352;48.180;11.478;2022-10-26T18:39:33;18.70;94.50
4677;DHT22;2352;48.180;11.478;2022-10-26T18:42:38;18.70;94.40
4677;DHT22;2352;48.180;11.478;2022-10-26T18:45:40;18.60;94.80
4677;DHT22;2352;48.180;11.478;2022-10-26T18:48:44;18.60;94.40
4677;DHT22;2352;48.180;11.478;2022-10-26T18:51:47;18.50;94.50
4677;DHT22;2352;48.180;11.478;2022-10-26T18:54:51;18.50;94.40
4677;DHT22;2352;48.180;11.478;2022-10-26T18:57:57;18.50;94.50
4677;DHT22;2352;48.180;11.478;2022-10-26T19:01:07;18.40;94.50
4677;DHT22;2352;48.180;11.478;2022-10-26T19:04:11;18.40;94.40
4677;DHT22;2352;48.180;11.478;2022-10-26T19:07:14;18.30;94.40
4677;DHT22;2352;48.180;11.478;2022-10-26T19:10:16;18.30;94.50
4677;DHT22;2352;48.180;11.478;2022-10-26T19:13:21;18.20;94.50
4677;DHT22;2352;48.180;11.478;2022-10-26T19:16:25;18.10;94.60
4677;DHT22;2352;48.180;11.478;2022-10-26T19:19:48;18.10;94.70
4677;DHT22;2352;48.180;11.478;2022-10-26T19:22:51;18.00;94.80
4677;DHT22;2352;48.180;11.478;2022-10-26T19:25:55;18.00;94.80
4677;DHT22;2352;48.180;11.478;2022-10-26T19:29:01;18.00;94.70
4677;DHT22;2352;48.180;11.478;2022-10-26T19:32:06;18.00;94.50
4677;DHT22;2352;48.180;11.478;2022-10-26T19:35:09;18.00;94.60
4677;DHT22;2352;48.180;11.478;2022-10-26T19:38:12;17.90;94.60
4677;DHT22;2352;48.180;11.478;2022-10-26T19:41:15;17.80;94.60
4677;DHT22;2352;48.180;11.478;2022-10-26T19:44:19;17.80;94.60
4677;DHT22;2352;48.180;11.478;2022-10-26T19:47:26;17.80;94.60
4677;DHT22;2352;48.180;11.478;2022-10-26T19:50:29;17.70;94.70
4677;DHT22;2352;48.180;11.478;2022-10-26T19:53:32;17.70;94.80
4677;DHT22;2352;48.180;11.478;2022-10-26T19:56:35;17.60;94.90
4677;DHT22;2352;48.180;11.478;2022-10-26T19:59:40;17.50;94.90
4677;DHT22;2352;48.180;11.478;2022-10-26T20:02:43;17.50;94.90
4677;DHT22;2352;48.180;11.478;2022-10-26T20:05:45;17.50;95.50
4677;DHT22;2352;48.180;11.478;2022-10-26T20:08:49;17.50;95.10